Flight Track Log - Related Links

Times and Time Zones

All times are in EDT time to prevent confusion due to time zone crossing. See the N46265 flight status page for this flight to view local times or setup timezone preferences in your user account.

Time Position Orientation Groundspeed Altitude Reporting Facility
EDT Latitude Longitude Course Direction KTS MPH feet Rate Location/Type
Thu 10:58:26 AM 28.9333 -81.6667 240° Southwest 92 106 1,500  Level Orlando TRACON
Thu 10:59:45 AM 28.9167 -81.7000 240° Southwest 97 112 2,100 318 Climbing Orlando TRACON
Thu 11:00:38 AM 28.9294 -81.7300 296° West 96 110 2,200  Climbing Jacksonville Center
Thu 11:01:39 AM 28.9358 -81.7608 283° West 93 107 2,100  Descending Jacksonville Center
Thu 11:02:40 AM 28.9425 -81.7917 284° West 95 109 2,200  Climbing Jacksonville Center
Thu 11:03:41 AM 28.9511 -81.8225 288° West 96 110 2,100 -52 Descending Jacksonville Center
Thu 11:04:36 AM 28.9533 -81.8486 276° West 96 110 2,100 52 Level Jacksonville Center
Thu 11:05:37 AM 28.9556 -81.8769 275° West 94 108 2,200 49 Climbing Jacksonville Center
Thu 11:06:38 AM 28.9600 -81.9053 280° West 94 108 2,200  Level Jacksonville Center
Thu 11:07:39 AM 28.9581 -81.9364 266° West 90 104 2,200 -99 Level Jacksonville Center
Thu 11:09:40 AM 28.9461 -81.9981 258° West 98 113 1,900 -98 Descending Jacksonville Center
Thu 11:10:42 AM 28.9400 -82.0267 256° West 92 106 1,900 49 Level Jacksonville Center
Thu 11:11:42 AM 28.9361 -82.0550 261° West 93 107 2,000 50 Climbing Jacksonville Center
Thu 11:12:43 AM 28.9342 -82.0858 266° West 92 106 2,000 -49 Level Jacksonville Center
Thu 11:13:44 AM 28.9364 -82.1167 275° West 94 108 1,900 -49 Descending Jacksonville Center
Thu 11:14:45 AM 28.9344 -82.1475 266° West 95 109 1,900 49 Level Jacksonville Center
Thu 11:15:46 AM 28.9306 -82.1761 261° West 92 106 2,000  Climbing Jacksonville Center
Thu 11:16:47 AM 28.9369 -82.2044 284° West 98 113 1,900 -49 Descending Jacksonville Center
Thu 11:17:48 AM 28.9619 -82.2186 334° Northwest 99 114 1,900  Level Jacksonville Center
Thu 11:18:49 AM 28.9892 -82.2278 344° North 98 113 1,900 -47 Level Jacksonville Center
Thu 11:19:56 AM 29.0183 -82.2253 North 100 115 1,800 -141 Descending Jacksonville Center
Thu 11:20:57 AM 29.0478 -82.2253 360° North 101 116 1,600 -98 Descending Jacksonville Center
Thu 11:21:58 AM 29.0747 -82.2250 North 100 115 1,600 -98 Level Jacksonville Center
Thu 11:22:59 AM 29.1061 -82.2225 North 100 115 1,400 -414 Descending Jacksonville Center
Thu 11:23:54 AM 29.1292 -82.2247 355° North 96 110 800 -517 Descending Jacksonville Center
Thu 11:24:55 AM 29.1542 -82.2267 356° North 88 101 400 98 Descending Jacksonville Center
Thu 11:25:56 AM 29.1792 -82.2292 355° North 92 106 1,000 639 Climbing Jacksonville Center
Thu 11:26:57 AM 29.1981 -82.2528 313° West 94 108 1,700 563 Climbing Jacksonville Center
Thu 11:28:04 AM 29.2150 -82.2789 307° West 96 110 2,200 469 Climbing Jacksonville Center
Thu 11:29:05 AM 29.2047 -82.3072 247° West 95 109 2,700 393 Climbing Jacksonville Center
Thu 11:30:06 AM 29.1944 -82.3358 248° West 94 108 3,000 148 Climbing Jacksonville Center
Thu 11:31:07 AM 29.1903 -82.3669 261° West 95 109 3,000 -49 Level Jacksonville Center
Thu 11:32:08 AM 29.1861 -82.3978 261° West 95 109 2,900 -49 Descending Jacksonville Center
Thu 11:33:09 AM 29.1822 -82.4264 261° West 97 112 2,900  Level Jacksonville Center
Thu 11:34:10 AM 29.1781 -82.4572 261° West 96 110 2,900  Level Jacksonville Center
Thu 11:35:10 AM 29.1697 -82.4858 252° West 90 104 2,900  Level Jacksonville Center
Thu 11:36:11 AM 29.1636 -82.5144 256° West 96 110 2,900  Level Jacksonville Center
Thu 11:37:12 AM 29.1575 -82.5453 257° West 92 106 2,900  Level Jacksonville Center
Thu 11:38:13 AM 29.1533 -82.5739 261° West 94 108 2,900  Level Jacksonville Center
Thu 11:39:14 AM 29.1722 -82.5978 312° West 98 113 2,900  Level Jacksonville Center
Thu 11:40:21 AM 29.1931 -82.6214 315° West 95 109 2,900  Level Jacksonville Center
Thu 11:41:22 AM 29.2183 -82.6308 342° North 101 116 2,900 -148 Level Jacksonville Center
Thu 11:42:23 AM 29.2350 -82.6069 51° Northeast 101 116 2,600 -295 Descending Jacksonville Center

Login

Don't have an account? Register now (free) for customized features, flight alerts, and more!